首页
METAR-TAF:

METAR-TAF

机场 :

Imperial Municipal Airport

Imperial, 內布拉斯加州, 美国

纬度: 40-31N, 经度: 101-37W, 海拔: 997米

当前天气观测

该预报发布于31分钟前的06:53 UTC
风速4节,风向
温度 22°C
湿度 50%
气压 1011 hPa
能見度: 16.1公里
天空无云

METAR: KIML 130653Z AUTO 19004KT 10SM CLR 22/11 A2985 RMK AO2 SLP064 T02170111 403890194

时间: 01:24 (07:24 UTC)


TAF: 丢失

超过4000个机场的气象观测和天气预报(METAR&TAF报告)。

可查询的气象台以黄色和红色小点在地图上表示。

将鼠标移到小点上方,可查看气象台名称。

然后点击查看天气观测和预报。

如需切换地图:点击带黑十字的绿色按钮放大地图;点击带横线的绿色按钮缩小地图;或者点击绿色箭头查看邻近地区的地图。


METAR-TAF: